createdAt,value
2022-09-28T00:00:56.281Z,8.12
2022-09-28T00:04:01.883Z,8.08
2022-09-28T00:07:07.471Z,8.07
2022-09-28T00:10:15.183Z,8.05
2022-09-28T00:13:23.282Z,8.01
2022-09-28T00:16:32.896Z,8.00
2022-09-28T00:19:39.307Z,8.08
2022-09-28T00:22:52.607Z,7.90
2022-09-28T00:25:58.091Z,7.89
2022-09-28T00:29:06.801Z,7.84
2022-09-28T00:32:17.147Z,7.83
2022-09-28T00:35:28.183Z,7.78
2022-09-28T00:38:40.825Z,7.78
2022-09-28T00:46:46.190Z,7.70
2022-09-28T00:50:07.601Z,7.67
2022-09-28T00:53:27.859Z,7.55
2022-09-28T00:56:43.973Z,7.40
2022-09-28T00:59:51.100Z,7.31
2022-09-28T01:03:03.778Z,7.25
2022-09-28T01:06:17.469Z,7.07
2022-09-28T01:09:30.656Z,7.08
2022-09-28T01:12:36.418Z,7.08
2022-09-28T01:15:56.086Z,7.06
2022-09-28T01:19:39.451Z,7.08
2022-09-28T01:23:46.709Z,7.10
2022-09-28T01:27:15.853Z,7.05
2022-09-28T01:30:25.877Z,7.03
2022-09-28T01:33:42.927Z,6.85
2022-09-28T01:36:57.203Z,7.01
2022-09-28T01:40:16.018Z,7.10
2022-09-28T01:43:37.445Z,6.74
2022-09-28T01:46:49.674Z,6.62
2022-09-28T01:50:07.884Z,6.34
2022-09-28T01:53:29.876Z,6.27
2022-09-28T01:56:45.098Z,6.24
2022-09-28T02:00:14.354Z,6.11
2022-09-28T02:03:28.422Z,6.12
2022-09-28T02:06:46.162Z,5.96
2022-09-28T02:10:01.117Z,5.95
2022-09-28T02:13:17.553Z,5.90
2022-09-28T02:16:37.828Z,5.83
2022-09-28T02:19:44.255Z,5.78
2022-09-28T02:22:56.511Z,5.69
2022-09-28T02:26:14.910Z,5.53
2022-09-28T02:29:22.468Z,5.44
2022-09-28T02:32:35.730Z,5.24
2022-09-28T02:35:44.413Z,5.10
2022-09-28T02:38:50.452Z,5.09
2022-09-28T02:42:09.678Z,5.13
2022-09-28T02:45:41.926Z,5.08
2022-09-28T02:49:27.844Z,4.95
2022-09-28T02:53:11.679Z,4.95
2022-09-28T02:56:53.144Z,4.88
2022-09-28T03:00:16.851Z,4.73
2022-09-28T03:03:35.873Z,4.82
2022-09-28T03:06:55.904Z,4.79
2022-09-28T03:10:11.761Z,4.83
2022-09-28T03:13:19.771Z,4.76
2022-09-28T03:16:26.435Z,4.85
2022-09-28T03:19:37.689Z,4.84
2022-09-28T03:23:00.481Z,4.86
2022-09-28T03:26:16.996Z,5.04
2022-09-28T03:29:22.894Z,5.01
2022-09-28T03:32:38.960Z,4.96
2022-09-28T03:35:45.489Z,4.99
2022-09-28T03:38:59.806Z,4.96
2022-09-28T03:42:06.261Z,4.99
2022-09-28T03:45:16.916Z,5.14
2022-09-28T03:48:31.853Z,4.97
2022-09-28T03:51:38.099Z,5.09
2022-09-28T03:54:49.189Z,5.07
2022-09-28T03:57:58.673Z,4.81
2022-09-28T04:01:16.506Z,4.83
2022-09-28T04:04:24.091Z,4.86
2022-09-28T04:07:31.181Z,4.71
2022-09-28T04:10:40.609Z,4.68
2022-09-28T04:13:46.407Z,4.66
2022-09-28T04:16:55.008Z,4.60
2022-09-28T04:20:08.487Z,4.49
2022-09-28T04:23:20.555Z,4.52
2022-09-28T04:26:35.625Z,4.68
2022-09-28T04:29:44.118Z,4.71
2022-09-28T04:32:52.296Z,4.77
2022-09-28T04:35:57.937Z,4.70
2022-09-28T04:39:03.640Z,4.74
2022-09-28T04:42:13.774Z,4.64
2022-09-28T04:45:22.304Z,4.63
2022-09-28T04:48:29.542Z,4.74
2022-09-28T04:51:58.208Z,4.64
2022-09-28T04:55:03.762Z,4.67
2022-09-28T04:58:12.015Z,4.85
2022-09-28T05:01:23.870Z,4.84
2022-09-28T05:04:38.493Z,4.75
2022-09-28T05:08:19.934Z,4.86
2022-09-28T05:11:27.111Z,4.74
2022-09-28T05:14:35.524Z,4.86
2022-09-28T05:17:42.725Z,5.02
2022-09-28T05:20:58.675Z,4.96
2022-09-28T05:24:07.835Z,5.05
2022-09-28T05:27:17.188Z,5.10
2022-09-28T05:30:29.691Z,5.22
2022-09-28T05:33:55.151Z,5.44
2022-09-28T05:37:08.659Z,5.52
2022-09-28T05:40:22.292Z,5.55
2022-09-28T05:43:28.100Z,5.45
2022-09-28T05:46:36.518Z,5.75
2022-09-28T05:49:42.745Z,6.35
2022-09-28T05:52:51.785Z,6.44
2022-09-28T05:56:04.082Z,7.06
2022-09-28T05:59:20.702Z,7.40
2022-09-28T06:02:29.359Z,8.01
2022-09-28T06:05:39.578Z,8.56
2022-09-28T06:08:51.188Z,7.57
2022-09-28T06:12:13.272Z,7.72
2022-09-28T06:15:25.853Z,8.73
2022-09-28T06:18:34.114Z,9.07
2022-09-28T06:21:59.349Z,9.09
2022-09-28T06:25:06.987Z,9.67
2022-09-28T06:28:15.674Z,9.63
2022-09-28T06:31:24.026Z,10.22
2022-09-28T06:34:32.917Z,10.04
2022-09-28T06:37:38.615Z,9.65
2022-09-28T06:40:44.525Z,9.71
2022-09-28T06:43:52.239Z,9.97
2022-09-28T06:47:22.286Z,10.49
2022-09-28T06:50:54.010Z,10.52
2022-09-28T06:54:07.304Z,10.94
2022-09-28T06:57:19.461Z,10.99
2022-09-28T07:00:28.633Z,10.94
2022-09-28T07:03:40.206Z,10.82
2022-09-28T07:07:31.497Z,11.34
2022-09-28T07:10:56.448Z,12.37
2022-09-28T07:14:42.563Z,11.91
2022-09-28T07:17:59.695Z,12.10
2022-09-28T07:21:10.777Z,12.21
2022-09-28T07:24:22.086Z,11.95
2022-09-28T07:27:53.745Z,12.33
2022-09-28T07:31:32.587Z,11.99
2022-09-28T07:34:59.104Z,12.17
2022-09-28T07:38:18.038Z,12.55
2022-09-28T07:41:36.207Z,13.19
2022-09-28T07:44:47.257Z,13.25
2022-09-28T07:47:52.988Z,11.70
2022-09-28T07:51:19.962Z,11.81
2022-09-28T07:54:54.337Z,11.71
2022-09-28T07:58:20.557Z,10.67
2022-09-28T08:01:38.663Z,11.30
2022-09-28T08:04:45.171Z,11.21
2022-09-28T08:07:53.198Z,10.81
2022-09-28T08:11:01.063Z,10.24
2022-09-28T08:14:28.811Z,10.47
2022-09-28T08:17:50.348Z,10.13
2022-09-28T08:21:11.206Z,10.57
2022-09-28T08:24:20.300Z,10.53
2022-09-28T08:27:26.672Z,11.85
2022-09-28T08:30:35.764Z,13.39
2022-09-28T08:33:57.667Z,14.36
2022-09-28T08:37:26.132Z,14.06
2022-09-28T08:41:07.743Z,13.82
2022-09-28T08:44:34.065Z,14.19
2022-09-28T08:48:19.009Z,14.58
2022-09-28T08:52:03.784Z,15.34
2022-09-28T08:55:34.156Z,15.97
2022-09-28T08:58:48.701Z,15.93
2022-09-28T09:02:04.000Z,14.23
2022-09-28T09:05:20.613Z,13.52
2022-09-28T09:09:15.354Z,12.76
2022-09-28T09:12:38.897Z,12.00
2022-09-28T09:15:58.519Z,12.32
2022-09-28T09:19:56.344Z,12.85
2022-09-28T09:23:40.281Z,12.88
2022-09-28T09:26:46.809Z,13.77
2022-09-28T09:30:19.195Z,14.57
2022-09-28T09:34:19.707Z,13.90
2022-09-28T09:37:59.670Z,13.16
2022-09-28T09:41:35.064Z,12.97
2022-09-28T09:45:46.091Z,14.69
2022-09-28T09:49:22.612Z,15.62
2022-09-28T09:52:42.339Z,16.62
2022-09-28T09:55:59.169Z,16.71
2022-09-28T09:59:24.500Z,16.98
2022-09-28T10:02:45.264Z,15.54
2022-09-28T10:06:35.875Z,14.53
2022-09-28T10:09:48.618Z,15.45
2022-09-28T10:13:13.796Z,15.53
2022-09-28T10:16:24.017Z,14.57
2022-09-28T10:19:39.911Z,15.19
2022-09-28T10:23:34.145Z,16.13
2022-09-28T10:26:49.407Z,15.87
2022-09-28T10:30:00.905Z,16.06
2022-09-28T10:33:34.405Z,15.34
2022-09-28T10:36:56.157Z,15.94
2022-09-28T10:40:02.752Z,15.23
2022-09-28T10:43:26.855Z,14.73
2022-09-28T10:46:41.427Z,14.30
2022-09-28T10:49:59.529Z,15.41
2022-09-28T10:53:23.082Z,16.30
2022-09-28T10:56:58.140Z,16.19
2022-09-28T11:00:37.269Z,15.66
2022-09-28T11:04:02.690Z,15.19
2022-09-28T11:07:21.532Z,14.97
2022-09-28T11:10:32.829Z,13.97
2022-09-28T11:13:53.242Z,13.44
2022-09-28T11:17:21.168Z,13.32
2022-09-28T11:20:37.530Z,13.26
2022-09-28T11:24:01.554Z,13.39
2022-09-28T11:27:08.177Z,12.92
2022-09-28T11:30:29.008Z,12.78
2022-09-28T11:34:16.039Z,13.48
2022-09-28T11:38:00.786Z,13.56
2022-09-28T11:42:05.114Z,13.45
2022-09-28T11:45:41.191Z,13.71
2022-09-28T11:49:09.857Z,13.64
2022-09-28T11:52:49.176Z,13.13
2022-09-28T11:56:13.871Z,13.92
2022-09-28T11:59:37.044Z,14.47
2022-09-28T12:02:54.656Z,14.08
2022-09-28T12:06:13.125Z,13.91
2022-09-28T12:09:33.321Z,13.60
2022-09-28T12:13:00.295Z,13.46
2022-09-28T12:19:56.479Z,13.57
2022-09-28T12:23:19.606Z,14.24
2022-09-28T12:26:39.559Z,13.59
2022-09-28T12:29:54.633Z,13.66
2022-09-28T12:33:19.974Z,14.12
2022-09-28T12:36:52.166Z,14.25
2022-09-28T12:40:28.337Z,14.28
2022-09-28T12:44:02.024Z,13.84
2022-09-28T12:47:52.126Z,14.03
2022-09-28T12:51:25.295Z,13.05
2022-09-28T12:55:05.291Z,12.66
2022-09-28T12:58:40.942Z,12.69
2022-09-28T13:02:30.352Z,12.73
2022-09-28T13:06:28.081Z,12.54
2022-09-28T13:09:52.759Z,12.62
2022-09-28T13:13:26.564Z,12.43
2022-09-28T13:16:46.896Z,12.45
2022-09-28T13:20:01.565Z,12.45
2022-09-28T13:23:21.702Z,12.43
2022-09-28T13:26:38.356Z,12.38
2022-09-28T13:29:47.267Z,12.09
2022-09-28T13:32:57.323Z,12.21
2022-09-28T13:36:05.792Z,12.16
2022-09-28T13:39:41.182Z,12.06
2022-09-28T13:43:23.867Z,12.09
2022-09-28T13:46:46.265Z,12.08
2022-09-28T13:50:17.415Z,12.14
2022-09-28T13:53:39.831Z,12.01
2022-09-28T13:57:05.316Z,11.91
2022-09-28T14:00:30.868Z,11.99
2022-09-28T14:03:58.630Z,11.81
2022-09-28T14:07:19.424Z,11.84
2022-09-28T14:10:47.060Z,11.86
2022-09-28T14:14:04.708Z,11.88
2022-09-28T14:18:02.057Z,11.91
2022-09-28T14:21:50.829Z,11.85
2022-09-28T14:25:18.093Z,11.80
2022-09-28T14:28:51.884Z,11.73
2022-09-28T14:32:05.930Z,11.71
2022-09-28T14:35:28.207Z,11.57
2022-09-28T14:39:00.171Z,11.58
2022-09-28T14:42:15.904Z,11.58
2022-09-28T14:45:38.649Z,11.53
2022-09-28T14:48:53.491Z,11.67
2022-09-28T14:52:06.715Z,11.68
2022-09-28T14:55:27.823Z,11.69
2022-09-28T14:58:33.822Z,11.59
2022-09-28T15:01:41.030Z,11.60
2022-09-28T15:04:55.143Z,11.64
2022-09-28T15:08:04.085Z,11.68
2022-09-28T15:11:20.857Z,11.67
2022-09-28T15:14:26.499Z,11.67
2022-09-28T15:17:39.791Z,11.59
2022-09-28T15:20:51.983Z,11.68
2022-09-28T15:24:00.129Z,11.47
2022-09-28T15:27:22.767Z,11.57
2022-09-28T15:30:37.656Z,11.39
2022-09-28T15:33:57.115Z,11.46
2022-09-28T15:37:09.212Z,11.45
2022-09-28T15:40:23.334Z,11.66
2022-09-28T15:43:33.279Z,11.67
2022-09-28T15:46:53.038Z,11.48
2022-09-28T15:50:05.683Z,11.18
2022-09-28T15:53:27.839Z,11.16
2022-09-28T15:57:06.057Z,11.12
2022-09-28T16:00:31.267Z,10.96
2022-09-28T16:03:51.846Z,10.93
2022-09-28T16:07:40.120Z,10.77
2022-09-28T16:11:07.621Z,10.30
2022-09-28T16:14:27.555Z,10.00
2022-09-28T16:17:38.307Z,9.97
2022-09-28T16:20:45.813Z,9.87
2022-09-28T16:23:58.610Z,9.64
2022-09-28T16:27:08.475Z,9.41
2022-09-28T16:30:25.550Z,9.45
2022-09-28T16:33:35.422Z,9.36
2022-09-28T16:36:47.469Z,9.32
2022-09-28T16:39:53.024Z,9.32
2022-09-28T16:43:04.417Z,9.30
2022-09-28T16:46:19.809Z,9.20
2022-09-28T16:49:28.505Z,9.22
2022-09-28T16:52:46.487Z,9.20
2022-09-28T16:55:52.985Z,9.29
2022-09-28T16:58:59.787Z,9.29
2022-09-28T17:02:45.721Z,9.17
2022-09-28T17:05:57.366Z,9.36
2022-09-28T17:09:07.042Z,9.50
2022-09-28T17:12:28.478Z,9.54
2022-09-28T17:15:34.097Z,9.57
2022-09-28T17:18:42.399Z,9.58
2022-09-28T17:21:48.376Z,9.55
2022-09-28T17:24:53.933Z,9.63
2022-09-28T17:28:01.934Z,9.60
2022-09-28T17:31:12.958Z,9.63
2022-09-28T17:34:21.581Z,9.70
2022-09-28T17:37:27.171Z,9.66
2022-09-28T17:40:35.019Z,9.77
2022-09-28T17:43:41.858Z,9.81
2022-09-28T17:46:51.284Z,9.77
2022-09-28T17:49:59.504Z,9.71
2022-09-28T17:53:06.668Z,9.74
2022-09-28T17:56:12.357Z,9.76
2022-09-28T17:59:22.160Z,9.76
2022-09-28T18:02:28.095Z,9.80
2022-09-28T18:05:36.967Z,9.81
2022-09-28T18:08:43.812Z,9.83
2022-09-28T18:11:54.331Z,9.88
2022-09-28T18:15:00.268Z,9.91
2022-09-28T18:18:09.645Z,10.05
2022-09-28T18:21:18.389Z,10.21
2022-09-28T18:24:24.353Z,10.33
2022-09-28T18:27:34.287Z,10.45
2022-09-28T18:30:44.686Z,10.57
2022-09-28T18:33:51.301Z,10.59
2022-09-28T18:36:59.671Z,10.60
2022-09-28T18:40:05.782Z,10.60
2022-09-28T18:43:14.454Z,10.60
2022-09-28T18:46:21.368Z,10.57
2022-09-28T18:49:27.783Z,10.53
2022-09-28T18:52:42.369Z,10.31
2022-09-28T18:55:48.981Z,10.09
2022-09-28T18:58:54.874Z,10.22
2022-09-28T19:02:01.773Z,10.30
2022-09-28T19:05:10.083Z,10.31
2022-09-28T19:08:18.115Z,10.29
2022-09-28T19:11:23.653Z,10.37
2022-09-28T19:14:29.293Z,10.40
2022-09-28T19:17:36.265Z,10.37
2022-09-28T19:20:41.900Z,10.26
2022-09-28T19:23:53.847Z,10.22
2022-09-28T19:26:59.511Z,9.95
2022-09-28T19:30:05.212Z,9.79
2022-09-28T19:33:11.003Z,9.57
2022-09-28T19:36:19.817Z,9.51
2022-09-28T19:39:27.993Z,9.36
2022-09-28T19:42:34.244Z,9.37
2022-09-28T19:45:40.167Z,9.37
2022-09-28T19:48:45.771Z,9.49
2022-09-28T19:52:14.295Z,9.55
2022-09-28T19:55:23.803Z,9.62
2022-09-28T19:58:34.765Z,9.66
2022-09-28T20:01:40.577Z,9.74
2022-09-28T20:04:46.187Z,9.90
2022-09-28T20:07:51.854Z,9.91
2022-09-28T20:11:02.344Z,9.89
2022-09-28T20:14:19.335Z,9.90
2022-09-28T20:17:25.128Z,9.85
2022-09-28T20:20:36.507Z,9.86
2022-09-28T20:23:42.936Z,9.94
2022-09-28T20:26:51.115Z,9.93
2022-09-28T20:29:56.758Z,9.89
2022-09-28T20:33:02.476Z,9.88
2022-09-28T20:36:09.681Z,9.92
2022-09-28T20:39:16.009Z,10.01
2022-09-28T20:42:24.566Z,9.93
2022-09-28T20:45:30.202Z,9.96
2022-09-28T20:48:37.108Z,9.93
2022-09-28T20:51:42.625Z,9.91
2022-09-28T20:54:48.078Z,9.90
2022-09-28T20:57:56.243Z,9.97
2022-09-28T21:01:12.613Z,10.02
2022-09-28T21:04:18.173Z,9.97
2022-09-28T21:07:23.741Z,9.93
2022-09-28T21:10:30.835Z,9.92
2022-09-28T21:13:43.028Z,9.87
2022-09-28T21:16:48.559Z,9.81
2022-09-28T21:19:54.212Z,9.85
2022-09-28T21:22:59.889Z,9.87
2022-09-28T21:26:11.401Z,9.83
2022-09-28T21:29:19.579Z,9.84
2022-09-28T21:32:25.251Z,9.83
2022-09-28T21:35:30.811Z,9.87
2022-09-28T21:38:37.866Z,9.73
2022-09-28T21:41:44.475Z,9.69
2022-09-28T21:44:55.332Z,9.68
2022-09-28T21:48:04.834Z,9.71
2022-09-28T21:51:13.460Z,9.72
2022-09-28T21:54:19.298Z,9.74
2022-09-28T21:57:26.153Z,9.71
2022-09-28T22:00:34.740Z,9.64
2022-09-28T22:03:40.431Z,9.57
2022-09-28T22:06:45.993Z,9.45
2022-09-28T22:09:53.600Z,9.42
2022-09-28T22:12:59.227Z,9.43
2022-09-28T22:16:07.713Z,9.42
2022-09-28T22:19:13.407Z,9.42
2022-09-28T22:22:18.978Z,9.40
2022-09-28T22:25:24.678Z,9.36
2022-09-28T22:28:31.351Z,9.26
2022-09-28T22:31:42.765Z,9.28
2022-09-28T22:34:48.275Z,9.26
2022-09-28T22:37:53.861Z,9.37
2022-09-28T22:41:00.215Z,9.20
2022-09-28T22:44:05.755Z,9.28
2022-09-28T22:47:16.007Z,9.40
2022-09-28T22:50:21.596Z,9.37
2022-09-28T22:53:28.577Z,9.35
2022-09-28T22:56:36.400Z,9.32
2022-09-28T22:59:44.030Z,9.27
2022-09-28T23:02:52.193Z,9.24
2022-09-28T23:05:59.457Z,9.25
2022-09-28T23:09:05.561Z,9.15
2022-09-28T23:12:11.262Z,9.18
2022-09-28T23:15:23.403Z,9.24
2022-09-28T23:18:35.602Z,9.27
2022-09-28T23:21:41.526Z,9.27
2022-09-28T23:24:47.000Z,9.22
2022-09-28T23:27:54.121Z,9.21
2022-09-28T23:30:59.716Z,9.08
2022-09-28T23:34:09.596Z,9.09
2022-09-28T23:37:15.145Z,9.08
2022-09-28T23:40:22.853Z,9.07
2022-09-28T23:43:28.862Z,9.01
2022-09-28T23:46:34.567Z,8.97
2022-09-28T23:49:50.601Z,9.01
2022-09-28T23:52:56.066Z,9.04
2022-09-28T23:56:02.565Z,8.98
2022-09-28T23:59:08.785Z,8.92
